sensor_id;sensor_type;location;lat;lon;timestamp;pressure;altitude;pressure_sealevel;temperature;humidity
19112;BME280;9688;51.906;8.376;2022-07-09T00:01:28;101886.53;;;19.10;82.60
19112;BME280;9688;51.906;8.376;2022-07-09T00:04:14;101888.44;;;19.08;82.99
19112;BME280;9688;51.906;8.376;2022-07-09T00:07:00;101881.47;;;19.04;83.37
19112;BME280;9688;51.906;8.376;2022-07-09T00:09:46;101875.53;;;18.99;83.30
19112;BME280;9688;51.906;8.376;2022-07-09T00:12:34;101873.94;;;18.94;83.58
19112;BME280;9688;51.906;8.376;2022-07-09T00:15:19;101877.91;;;18.87;84.06
19112;BME280;9688;51.906;8.376;2022-07-09T00:18:05;101877.34;;;18.81;84.04
19112;BME280;9688;51.906;8.376;2022-07-09T00:20:53;101874.06;;;18.76;84.49
19112;BME280;9688;51.906;8.376;2022-07-09T00:23:38;101876.16;;;18.69;84.84
19112;BME280;9688;51.906;8.376;2022-07-09T00:26:24;101873.72;;;18.64;84.72
19112;BME280;9688;51.906;8.376;2022-07-09T00:29:12;101866.88;;;18.59;84.88
19112;BME280;9688;51.906;8.376;2022-07-09T00:31:57;101881.38;;;18.55;85.35
19112;BME280;9688;51.906;8.376;2022-07-09T00:34:43;101876.03;;;18.55;85.68
19112;BME280;9688;51.906;8.376;2022-07-09T00:37:29;101877.03;;;18.52;85.42
19112;BME280;9688;51.906;8.376;2022-07-09T00:40:14;101870.19;;;18.46;86.17
19112;BME280;9688;51.906;8.376;2022-07-09T00:43:00;101864.03;;;18.44;85.78
19112;BME280;9688;51.906;8.376;2022-07-09T00:45:48;101865.16;;;18.40;86.54
19112;BME280;9688;51.906;8.376;2022-07-09T00:48:33;101861.69;;;18.38;86.44
19112;BME280;9688;51.906;8.376;2022-07-09T00:51:20;101861.13;;;18.32;86.48
19112;BME280;9688;51.906;8.376;2022-07-09T00:54:05;101843.44;;;18.29;86.78
19112;BME280;9688;51.906;8.376;2022-07-09T00:56:52;101848.84;;;18.27;86.57
19112;BME280;9688;51.906;8.376;2022-07-09T00:59:39;101844.56;;;18.23;87.00
19112;BME280;9688;51.906;8.376;2022-07-09T01:02:26;101847.50;;;18.19;87.35
19112;BME280;9688;51.906;8.376;2022-07-09T01:05:12;101849.56;;;18.14;87.55
19112;BME280;9688;51.906;8.376;2022-07-09T01:07:58;101848.75;;;18.12;87.83
19112;BME280;9688;51.906;8.376;2022-07-09T01:10:44;101855.22;;;18.08;87.84
19112;BME280;9688;51.906;8.376;2022-07-09T01:13:30;101857.09;;;18.05;87.87
19112;BME280;9688;51.906;8.376;2022-07-09T01:16:16;101850.19;;;18.01;87.85
19112;BME280;9688;51.906;8.376;2022-07-09T01:19:04;101845.75;;;18.00;88.08
19112;BME280;9688;51.906;8.376;2022-07-09T01:21:51;101844.88;;;18.00;88.27
19112;BME280;9688;51.906;8.376;2022-07-09T01:24:37;101839.47;;;18.01;88.36
19112;BME280;9688;51.906;8.376;2022-07-09T01:27:23;101836.81;;;18.01;88.19
19112;BME280;9688;51.906;8.376;2022-07-09T01:30:09;101834.88;;;18.03;88.93
19112;BME280;9688;51.906;8.376;2022-07-09T01:32:55;101828.78;;;18.01;88.59
19112;BME280;9688;51.906;8.376;2022-07-09T01:35:41;101829.78;;;17.99;88.70
19112;BME280;9688;51.906;8.376;2022-07-09T01:38:28;101828.91;;;17.98;89.37
19112;BME280;9688;51.906;8.376;2022-07-09T01:41:14;101830.72;;;17.98;88.99
19112;BME280;9688;51.906;8.376;2022-07-09T01:44:00;101827.19;;;17.97;89.52
19112;BME280;9688;51.906;8.376;2022-07-09T01:46:46;101823.53;;;17.98;89.78
19112;BME280;9688;51.906;8.376;2022-07-09T01:49:32;101818.13;;;18.00;89.28
19112;BME280;9688;51.906;8.376;2022-07-09T01:52:17;101819.00;;;18.00;89.42
19112;BME280;9688;51.906;8.376;2022-07-09T01:55:06;101818.06;;;18.01;89.68
19112;BME280;9688;51.906;8.376;2022-07-09T01:57:52;101813.41;;;18.05;89.25
19112;BME280;9688;51.906;8.376;2022-07-09T02:00:37;101811.28;;;18.12;89.20
19112;BME280;9688;51.906;8.376;2022-07-09T02:03:23;101818.13;;;18.17;89.56
19112;BME280;9688;51.906;8.376;2022-07-09T02:06:09;101803.72;;;18.20;89.48
19112;BME280;9688;51.906;8.376;2022-07-09T02:08:55;101804.38;;;18.25;89.24
19112;BME280;9688;51.906;8.376;2022-07-09T02:11:43;101798.84;;;18.28;89.46
19112;BME280;9688;51.906;8.376;2022-07-09T02:14:28;101798.69;;;18.31;89.13
19112;BME280;9688;51.906;8.376;2022-07-09T02:17:14;101797.59;;;18.35;89.35
19112;BME280;9688;51.906;8.376;2022-07-09T02:20:07;101795.44;;;18.42;89.08
19112;BME280;9688;51.906;8.376;2022-07-09T02:22:54;101798.81;;;18.45;89.02
19112;BME280;9688;51.906;8.376;2022-07-09T02:25:40;101791.59;;;18.47;88.54
19112;BME280;9688;51.906;8.376;2022-07-09T02:28:27;101801.28;;;18.50;88.98
19112;BME280;9688;51.906;8.376;2022-07-09T02:31:13;101800.41;;;18.49;88.96
19112;BME280;9688;51.906;8.376;2022-07-09T02:33:59;101790.50;;;18.52;88.35
19112;BME280;9688;51.906;8.376;2022-07-09T02:36:44;101787.03;;;18.49;88.77
19112;BME280;9688;51.906;8.376;2022-07-09T02:39:30;101796.00;;;18.48;88.80
19112;BME280;9688;51.906;8.376;2022-07-09T02:42:16;101793.47;;;18.45;88.66
19112;BME280;9688;51.906;8.376;2022-07-09T02:45:03;101794.34;;;18.46;89.24
19112;BME280;9688;51.906;8.376;2022-07-09T02:47:49;101794.09;;;18.50;88.69
19112;BME280;9688;51.906;8.376;2022-07-09T02:50:35;101796.59;;;18.54;89.09
19112;BME280;9688;51.906;8.376;2022-07-09T02:53:21;101799.28;;;18.54;88.73
19112;BME280;9688;51.906;8.376;2022-07-09T02:56:06;101794.81;;;18.54;88.75
19112;BME280;9688;51.906;8.376;2022-07-09T02:58:52;101790.56;;;18.50;88.80
19112;BME280;9688;51.906;8.376;2022-07-09T03:01:40;101787.97;;;18.48;88.69
19112;BME280;9688;51.906;8.376;2022-07-09T03:04:25;101791.41;;;18.50;89.16
19112;BME280;9688;51.906;8.376;2022-07-09T03:07:11;101796.00;;;18.48;89.14
19112;BME280;9688;51.906;8.376;2022-07-09T03:09:58;101800.31;;;18.51;88.97
19112;BME280;9688;51.906;8.376;2022-07-09T03:12:44;101792.28;;;18.51;88.78
19112;BME280;9688;51.906;8.376;2022-07-09T03:15:30;101788.66;;;18.52;88.71
19112;BME280;9688;51.906;8.376;2022-07-09T03:18:17;101787.66;;;18.55;88.95
19112;BME280;9688;51.906;8.376;2022-07-09T03:21:03;101790.31;;;18.55;88.91
19112;BME280;9688;51.906;8.376;2022-07-09T03:23:49;101788.56;;;18.54;89.21
19112;BME280;9688;51.906;8.376;2022-07-09T03:26:36;101789.47;;;18.54;89.03
19112;BME280;9688;51.906;8.376;2022-07-09T03:29:22;101798.19;;;18.58;89.08
19112;BME280;9688;51.906;8.376;2022-07-09T03:32:08;101792.66;;;18.61;89.04
19112;BME280;9688;51.906;8.376;2022-07-09T03:34:55;101788.16;;;18.61;89.00
19112;BME280;9688;51.906;8.376;2022-07-09T03:37:41;101792.84;;;18.58;89.03
19112;BME280;9688;51.906;8.376;2022-07-09T03:40:27;101797.50;;;18.54;89.27
19112;BME280;9688;51.906;8.376;2022-07-09T03:43:13;101789.53;;;18.53;89.18
19112;BME280;9688;51.906;8.376;2022-07-09T03:45:59;101791.41;;;18.50;89.47
19112;BME280;9688;51.906;8.376;2022-07-09T03:48:45;101780.88;;;18.47;89.45
19112;BME280;9688;51.906;8.376;2022-07-09T03:51:34;101778.19;;;18.47;89.92
19112;BME280;9688;51.906;8.376;2022-07-09T03:54:21;101786.84;;;18.53;89.78
19112;BME280;9688;51.906;8.376;2022-07-09T03:57:07;101773.28;;;18.56;89.78
19112;BME280;9688;51.906;8.376;2022-07-09T03:59:53;101771.31;;;18.59;89.70
19112;BME280;9688;51.906;8.376;2022-07-09T04:02:40;101775.63;;;18.62;89.73
19112;BME280;9688;51.906;8.376;2022-07-09T04:05:32;101778.25;;;18.63;89.74
19112;BME280;9688;51.906;8.376;2022-07-09T04:08:19;101773.75;;;18.64;89.51
19112;BME280;9688;51.906;8.376;2022-07-09T04:11:05;101772.03;;;18.63;89.55
19112;BME280;9688;51.906;8.376;2022-07-09T04:13:51;101778.94;;;18.67;89.60
19112;BME280;9688;51.906;8.376;2022-07-09T04:16:36;101776.19;;;18.68;89.28
19112;BME280;9688;51.906;8.376;2022-07-09T04:19:22;101776.03;;;18.71;88.95
19112;BME280;9688;51.906;8.376;2022-07-09T04:22:08;101772.19;;;18.77;88.62
19112;BME280;9688;51.906;8.376;2022-07-09T04:24:56;101769.50;;;18.77;89.15
19112;BME280;9688;51.906;8.376;2022-07-09T04:27:42;101770.34;;;18.78;88.70
19112;BME280;9688;51.906;8.376;2022-07-09T04:30:27;101766.72;;;18.79;88.97
19112;BME280;9688;51.906;8.376;2022-07-09T04:33:13;101775.47;;;18.82;88.60
19112;BME280;9688;51.906;8.376;2022-07-09T04:35:59;101764.59;;;18.85;88.93
19112;BME280;9688;51.906;8.376;2022-07-09T04:38:45;101767.00;;;18.90;88.52
19112;BME280;9688;51.906;8.376;2022-07-09T04:41:32;101762.78;;;18.86;88.55
19112;BME280;9688;51.906;8.376;2022-07-09T04:44:19;101771.66;;;18.86;89.02
19112;BME280;9688;51.906;8.376;2022-07-09T04:47:04;101771.50;;;18.89;88.60
19112;BME280;9688;51.906;8.376;2022-07-09T04:49:50;101777.56;;;19.09;87.99
19112;BME280;9688;51.906;8.376;2022-07-09T04:52:36;101775.94;;;19.22;87.88
19112;BME280;9688;51.906;8.376;2022-07-09T04:55:22;101774.81;;;19.26;87.63
19112;BME280;9688;51.906;8.376;2022-07-09T04:58:09;101782.44;;;19.18;88.05
19112;BME280;9688;51.906;8.376;2022-07-09T05:00:55;101778.19;;;19.14;88.06
19112;BME280;9688;51.906;8.376;2022-07-09T05:03:40;101778.19;;;19.14;87.98
19112;BME280;9688;51.906;8.376;2022-07-09T05:06:27;101785.38;;;19.13;87.61
19112;BME280;9688;51.906;8.376;2022-07-09T05:09:12;101790.22;;;19.07;87.79
19112;BME280;9688;51.906;8.376;2022-07-09T05:11:58;101783.53;;;18.98;87.84
19112;BME280;9688;51.906;8.376;2022-07-09T05:14:45;101781.44;;;19.03;87.51
19112;BME280;9688;51.906;8.376;2022-07-09T05:17:33;101780.41;;;19.06;87.15
19112;BME280;9688;51.906;8.376;2022-07-09T05:20:20;101778.03;;;19.01;87.16
19112;BME280;9688;51.906;8.376;2022-07-09T05:23:09;101783.28;;;19.03;86.93
19112;BME280;9688;51.906;8.376;2022-07-09T05:25:55;101777.13;;;19.01;86.91
19112;BME280;9688;51.906;8.376;2022-07-09T05:28:41;101788.75;;;19.01;86.57
19112;BME280;9688;51.906;8.376;2022-07-09T05:31:28;101782.66;;;18.98;86.58
19112;BME280;9688;51.906;8.376;2022-07-09T05:34:15;101788.44;;;18.90;87.08
19112;BME280;9688;51.906;8.376;2022-07-09T05:37:00;101784.59;;;18.96;86.80
19112;BME280;9688;51.906;8.376;2022-07-09T05:39:46;101779.06;;;18.99;86.77
19112;BME280;9688;51.906;8.376;2022-07-09T05:42:32;101781.38;;;19.05;86.42
19112;BME280;9688;51.906;8.376;2022-07-09T05:45:18;101777.50;;;19.10;86.31
19112;BME280;9688;51.906;8.376;2022-07-09T05:48:05;101774.81;;;19.10;85.92
19112;BME280;9688;51.906;8.376;2022-07-09T05:50:51;101785.00;;;19.04;86.08
19112;BME280;9688;51.906;8.376;2022-07-09T05:53:37;101792.91;;;19.07;86.01
19112;BME280;9688;51.906;8.376;2022-07-09T05:56:22;101798.09;;;19.10;86.12
19112;BME280;9688;51.906;8.376;2022-07-09T05:59:08;101789.06;;;19.11;85.94
19112;BME280;9688;51.906;8.376;2022-07-09T06:01:54;101793.22;;;19.16;85.83
19112;BME280;9688;51.906;8.376;2022-07-09T06:04:41;101795.50;;;19.24;85.49
19112;BME280;9688;51.906;8.376;2022-07-09T06:07:27;101797.81;;;19.30;85.20
19112;BME280;9688;51.906;8.376;2022-07-09T06:10:16;101785.81;;;19.37;84.89
19112;BME280;9688;51.906;8.376;2022-07-09T06:13:02;101793.41;;;19.45;84.74
19112;BME280;9688;51.906;8.376;2022-07-09T06:15:48;101790.09;;;19.56;84.19
19112;BME280;9688;51.906;8.376;2022-07-09T06:18:34;101799.63;;;19.61;83.95
19112;BME280;9688;51.906;8.376;2022-07-09T06:21:22;101792.03;;;19.70;83.67
19112;BME280;9688;51.906;8.376;2022-07-09T06:24:07;101789.88;;;19.76;83.44
19112;BME280;9688;51.906;8.376;2022-07-09T06:26:53;101791.13;;;19.85;82.96
19112;BME280;9688;51.906;8.376;2022-07-09T06:29:39;101797.63;;;19.81;82.87
19112;BME280;9688;51.906;8.376;2022-07-09T06:32:27;101795.13;;;19.78;82.82
19112;BME280;9688;51.906;8.376;2022-07-09T06:35:14;101791.03;;;19.87;82.47
19112;BME280;9688;51.906;8.376;2022-07-09T06:38:01;101776.72;;;20.02;81.88
19112;BME280;9688;51.906;8.376;2022-07-09T06:40:47;101774.19;;;20.15;81.49
19112;BME280;9688;51.906;8.376;2022-07-09T06:43:34;101774.19;;;20.29;80.73
19112;BME280;9688;51.906;8.376;2022-07-09T06:46:20;101769.97;;;20.25;80.65
19112;BME280;9688;51.906;8.376;2022-07-09T06:49:06;101788.94;;;20.22;80.53
19112;BME280;9688;51.906;8.376;2022-07-09T06:51:52;101794.22;;;20.23;80.61
19112;BME280;9688;51.906;8.376;2022-07-09T06:54:42;101790.50;;;20.26;80.27
19112;BME280;9688;51.906;8.376;2022-07-09T06:57:32;101785.41;;;20.21;80.29
19112;BME280;9688;51.906;8.376;2022-07-09T07:00:19;101790.59;;;20.24;79.94
19112;BME280;9688;51.906;8.376;2022-07-09T07:03:05;101790.38;;;20.27;79.77
19112;BME280;9688;51.906;8.376;2022-07-09T07:05:50;101778.03;;;20.39;79.46
19112;BME280;9688;51.906;8.376;2022-07-09T07:08:37;101777.38;;;20.50;79.01
19112;BME280;9688;51.906;8.376;2022-07-09T07:11:24;101757.34;;;20.56;78.63
19112;BME280;9688;51.906;8.376;2022-07-09T07:14:11;101776.28;;;20.54;78.48
19112;BME280;9688;51.906;8.376;2022-07-09T07:16:59;101781.34;;;20.59;78.39
19112;BME280;9688;51.906;8.376;2022-07-09T07:19:50;101786.63;;;20.75;77.98
19112;BME280;9688;51.906;8.376;2022-07-09T07:22:42;101787.41;;;20.91;77.41
19112;BME280;9688;51.906;8.376;2022-07-09T07:25:28;101784.81;;;21.04;76.87
19112;BME280;9688;51.906;8.376;2022-07-09T07:28:16;101780.53;;;21.14;76.25
19112;BME280;9688;51.906;8.376;2022-07-09T07:31:03;101783.81;;;21.19;76.01
19112;BME280;9688;51.906;8.376;2022-07-09T07:33:49;101785.44;;;21.22;75.76
19112;BME280;9688;51.906;8.376;2022-07-09T07:36:34;101774.69;;;21.22;75.71
19112;BME280;9688;51.906;8.376;2022-07-09T07:39:20;101774.28;;;21.28;75.44
19112;BME280;9688;51.906;8.376;2022-07-09T07:42:09;101764.06;;;21.47;74.76
19112;BME280;9688;51.906;8.376;2022-07-09T07:44:56;101753.44;;;21.58;74.47
19112;BME280;9688;51.906;8.376;2022-07-09T07:47:42;101751.09;;;21.67;74.02
19112;BME280;9688;51.906;8.376;2022-07-09T07:50:29;101754.69;;;21.67;73.90
19112;BME280;9688;51.906;8.376;2022-07-09T07:53:14;101756.19;;;21.71;73.44
19112;BME280;9688;51.906;8.376;2022-07-09T07:56:01;101745.25;;;21.87;73.05
19112;BME280;9688;51.906;8.376;2022-07-09T07:58:49;101756.03;;;22.00;72.52
19112;BME280;9688;51.906;8.376;2022-07-09T08:01:37;101739.28;;;22.22;71.49
19112;BME280;9688;51.906;8.376;2022-07-09T08:04:23;101738.22;;;22.37;71.17
19112;BME280;9688;51.906;8.376;2022-07-09T08:07:09;101730.69;;;22.42;71.01
19112;BME280;9688;51.906;8.376;2022-07-09T08:09:56;101739.59;;;22.68;70.05
19112;BME280;9688;51.906;8.376;2022-07-09T08:12:43;101738.81;;;22.92;69.47
19112;BME280;9688;51.906;8.376;2022-07-09T08:15:29;101733.06;;;23.09;68.46
19112;BME280;9688;51.906;8.376;2022-07-09T08:18:17;101724.81;;;23.24;67.87
19112;BME280;9688;51.906;8.376;2022-07-09T08:21:07;101733.09;;;23.33;67.81
19112;BME280;9688;51.906;8.376;2022-07-09T08:23:56;101727.31;;;23.14;67.83
19112;BME280;9688;51.906;8.376;2022-07-09T08:26:45;101732.75;;;22.88;68.23
19112;BME280;9688;51.906;8.376;2022-07-09T08:29:31;101743.59;;;22.63;69.20
19112;BME280;9688;51.906;8.376;2022-07-09T08:32:17;101737.69;;;22.45;70.84
19112;BME280;9688;51.906;8.376;2022-07-09T08:35:07;101744.06;;;22.31;72.12
19112;BME280;9688;51.906;8.376;2022-07-09T08:37:56;101736.28;;;22.26;73.13
19112;BME280;9688;51.906;8.376;2022-07-09T08:40:44;101730.78;;;22.28;73.93
19112;BME280;9688;51.906;8.376;2022-07-09T08:43:34;101729.06;;;22.27;73.74
19112;BME280;9688;51.906;8.376;2022-07-09T08:46:22;101728.19;;;22.26;73.19
19112;BME280;9688;51.906;8.376;2022-07-09T08:49:09;101725.50;;;22.26;73.08
19112;BME280;9688;51.906;8.376;2022-07-09T08:52:02;101723.56;;;22.41;72.53
19112;BME280;9688;51.906;8.376;2022-07-09T08:54:48;101721.94;;;22.64;72.00
19112;BME280;9688;51.906;8.376;2022-07-09T08:57:34;101727.72;;;22.84;71.31
19112;BME280;9688;51.906;8.376;2022-07-09T09:00:20;101723.91;;;23.12;69.67
19112;BME280;9688;51.906;8.376;2022-07-09T09:03:06;101717.44;;;23.50;68.63
19112;BME280;9688;51.906;8.376;2022-07-09T09:06:03;101717.34;;;23.75;67.49
19112;BME280;9688;51.906;8.376;2022-07-09T09:08:54;101711.81;;;23.77;66.47
19112;BME280;9688;51.906;8.376;2022-07-09T09:11:42;101706.13;;;23.69;66.61
19112;BME280;9688;51.906;8.376;2022-07-09T09:14:32;101712.59;;;23.66;66.00
19112;BME280;9688;51.906;8.376;2022-07-09T09:17:19;101718.19;;;23.52;65.69
19112;BME280;9688;51.906;8.376;2022-07-09T09:20:11;101707.69;;;23.36;65.82
19112;BME280;9688;51.906;8.376;2022-07-09T09:23:00;101713.16;;;23.23;65.96
19112;BME280;9688;51.906;8.376;2022-07-09T09:25:48;101699.25;;;23.16;66.16
19112;BME280;9688;51.906;8.376;2022-07-09T09:28:33;101698.41;;;23.16;66.43
19112;BME280;9688;51.906;8.376;2022-07-09T09:31:23;101694.75;;;23.17;66.23
19112;BME280;9688;51.906;8.376;2022-07-09T09:34:11;101698.28;;;23.18;66.03
19112;BME280;9688;51.906;8.376;2022-07-09T09:36:58;101703.63;;;23.06;66.04
19112;BME280;9688;51.906;8.376;2022-07-09T09:39:49;101702.63;;;22.94;66.37
19112;BME280;9688;51.906;8.376;2022-07-09T09:42:40;101700.06;;;22.93;66.19
19112;BME280;9688;51.906;8.376;2022-07-09T09:45:28;101706.03;;;22.98;65.91
19112;BME280;9688;51.906;8.376;2022-07-09T09:48:16;101701.78;;;23.07;65.79
19112;BME280;9688;51.906;8.376;2022-07-09T09:51:05;101700.88;;;23.19;65.72
19112;BME280;9688;51.906;8.376;2022-07-09T09:53:53;101704.88;;;23.37;65.40
19112;BME280;9688;51.906;8.376;2022-07-09T09:56:42;101707.81;;;23.34;64.59
19112;BME280;9688;51.906;8.376;2022-07-09T09:59:34;101704.31;;;23.21;64.85
19112;BME280;9688;51.906;8.376;2022-07-09T10:02:25;101710.00;;;23.29;64.68
19112;BME280;9688;51.906;8.376;2022-07-09T10:05:11;101696.28;;;23.32;64.67
19112;BME280;9688;51.906;8.376;2022-07-09T10:07:58;101697.84;;;23.48;64.21
19112;BME280;9688;51.906;8.376;2022-07-09T10:10:50;101698.47;;;23.75;63.43
19112;BME280;9688;51.906;8.376;2022-07-09T10:13:38;101690.38;;;23.87;62.88
19112;BME280;9688;51.906;8.376;2022-07-09T10:16:36;101689.41;;;23.99;62.39
19112;BME280;9688;51.906;8.376;2022-07-09T10:19:24;101679.88;;;24.29;61.24
19112;BME280;9688;51.906;8.376;2022-07-09T10:22:09;101680.91;;;24.50;60.30
19112;BME280;9688;51.906;8.376;2022-07-09T10:24:55;101676.69;;;24.35;60.49
19112;BME280;9688;51.906;8.376;2022-07-09T10:27:42;101667.56;;;24.24;60.31
19112;BME280;9688;51.906;8.376;2022-07-09T10:30:30;101658.13;;;24.19;60.33
19112;BME280;9688;51.906;8.376;2022-07-09T10:33:26;101665.13;;;24.10;60.40
19112;BME280;9688;51.906;8.376;2022-07-09T10:36:17;101671.75;;;23.95;60.71
19112;BME280;9688;51.906;8.376;2022-07-09T10:39:12;101669.38;;;23.79;61.11
19112;BME280;9688;51.906;8.376;2022-07-09T10:42:04;101662.38;;;23.76;61.23
19112;BME280;9688;51.906;8.376;2022-07-09T10:44:50;101665.09;;;23.88;60.97
19112;BME280;9688;51.906;8.376;2022-07-09T10:47:37;101660.53;;;23.88;61.41
19112;BME280;9688;51.906;8.376;2022-07-09T10:50:28;101649.38;;;23.93;61.55
19112;BME280;9688;51.906;8.376;2022-07-09T10:53:19;101649.50;;;24.02;61.15
19112;BME280;9688;51.906;8.376;2022-07-09T10:56:17;101636.25;;;24.11;60.93
19112;BME280;9688;51.906;8.376;2022-07-09T10:59:03;101637.00;;;24.24;61.05
19112;BME280;9688;51.906;8.376;2022-07-09T11:01:49;101642.16;;;24.38;60.67
19112;BME280;9688;51.906;8.376;2022-07-09T11:04:36;101634.19;;;24.59;60.29
19112;BME280;9688;51.906;8.376;2022-07-09T11:07:24;101636.38;;;24.65;59.56
19112;BME280;9688;51.906;8.376;2022-07-09T11:10:18;101642.38;;;24.80;58.83
19112;BME280;9688;51.906;8.376;2022-07-09T11:13:06;101634.97;;;24.93;58.63
19112;BME280;9688;51.906;8.376;2022-07-09T11:15:58;101642.59;;;24.88;58.33
19112;BME280;9688;51.906;8.376;2022-07-09T11:18:47;101641.03;;;24.75;58.68
19112;BME280;9688;51.906;8.376;2022-07-09T11:21:33;101641.56;;;24.57;59.03
19112;BME280;9688;51.906;8.376;2022-07-09T11:24:21;101631.97;;;24.42;59.16
19112;BME280;9688;51.906;8.376;2022-07-09T11:27:08;101628.88;;;24.35;59.47
19112;BME280;9688;51.906;8.376;2022-07-09T11:30:05;101628.53;;;24.40;59.04
19112;BME280;9688;51.906;8.376;2022-07-09T11:32:54;101614.53;;;24.46;58.87
19112;BME280;9688;51.906;8.376;2022-07-09T11:35:44;101629.66;;;24.48;58.52
19112;BME280;9688;51.906;8.376;2022-07-09T11:38:35;101623.22;;;24.61;58.47
19112;BME280;9688;51.906;8.376;2022-07-09T11:41:41;101606.53;;;24.67;57.99
19112;BME280;9688;51.906;8.376;2022-07-09T11:44:29;101603.41;;;24.71;58.06
19112;BME280;9688;51.906;8.376;2022-07-09T11:47:18;101607.47;;;24.77;57.37
19112;BME280;9688;51.906;8.376;2022-07-09T11:50:09;101610.41;;;24.74;57.26
19112;BME280;9688;51.906;8.376;2022-07-09T11:52:55;101610.69;;;24.71;57.40
19112;BME280;9688;51.906;8.376;2022-07-09T11:55:41;101613.63;;;24.68;57.41
19112;BME280;9688;51.906;8.376;2022-07-09T11:58:29;101605.19;;;24.61;57.63
19112;BME280;9688;51.906;8.376;2022-07-09T12:01:15;101602.94;;;24.78;57.02
19112;BME280;9688;51.906;8.376;2022-07-09T12:04:01;101597.88;;;24.84;56.47
19112;BME280;9688;51.906;8.376;2022-07-09T12:06:48;101587.41;;;24.80;56.19
19112;BME280;9688;51.906;8.376;2022-07-09T12:09:34;101589.47;;;24.87;55.92
19112;BME280;9688;51.906;8.376;2022-07-09T12:12:20;101586.47;;;25.02;55.25
19112;BME280;9688;51.906;8.376;2022-07-09T12:15:08;101574.50;;;25.15;54.70
19112;BME280;9688;51.906;8.376;2022-07-09T12:17:57;101578.16;;;25.26;54.47
19112;BME280;9688;51.906;8.376;2022-07-09T12:20:43;101572.38;;;25.30;54.40
19112;BME280;9688;51.906;8.376;2022-07-09T12:23:31;101565.56;;;25.36;54.50
19112;BME280;9688;51.906;8.376;2022-07-09T12:26:22;101565.56;;;25.36;54.59
19112;BME280;9688;51.906;8.376;2022-07-09T12:29:08;101565.03;;;25.42;53.68
19112;BME280;9688;51.906;8.376;2022-07-09T12:31:56;101551.47;;;25.63;52.98
19112;BME280;9688;51.906;8.376;2022-07-09T12:34:43;101561.50;;;25.72;52.57
19112;BME280;9688;51.906;8.376;2022-07-09T12:37:28;101550.19;;;25.88;52.29
19112;BME280;9688;51.906;8.376;2022-07-09T12:40:14;101550.09;;;25.99;51.78
19112;BME280;9688;51.906;8.376;2022-07-09T12:43:02;101550.25;;;26.08;50.73
19112;BME280;9688;51.906;8.376;2022-07-09T12:45:48;101548.56;;;26.07;49.99
19112;BME280;9688;51.906;8.376;2022-07-09T12:48:36;101546.84;;;26.06;49.40
19112;BME280;9688;51.906;8.376;2022-07-09T12:51:22;101532.84;;;26.00;49.32
19112;BME280;9688;51.906;8.376;2022-07-09T12:54:07;101516.31;;;26.03;48.23
19112;BME280;9688;51.906;8.376;2022-07-09T12:56:53;101528.34;;;26.11;47.23
19112;BME280;9688;51.906;8.376;2022-07-09T12:59:40;101522.63;;;26.14;46.85
19112;BME280;9688;51.906;8.376;2022-07-09T13:02:35;101515.34;;;26.14;46.93
19112;BME280;9688;51.906;8.376;2022-07-09T13:05:24;101513.66;;;26.23;46.43
19112;BME280;9688;51.906;8.376;2022-07-09T13:08:12;101527.50;;;26.30;46.53
19112;BME280;9688;51.906;8.376;2022-07-09T13:10:58;101528.22;;;26.32;46.82
19112;BME280;9688;51.906;8.376;2022-07-09T13:13:44;101526.53;;;26.31;46.65
19112;BME280;9688;51.906;8.376;2022-07-09T13:16:34;101517.25;;;26.33;46.73
19112;BME280;9688;51.906;8.376;2022-07-09T13:19:21;101521.50;;;26.26;46.97
19112;BME280;9688;51.906;8.376;2022-07-09T13:22:08;101518.34;;;26.21;47.25
19112;BME280;9688;51.906;8.376;2022-07-09T13:24:54;101509.66;;;26.27;46.82
19112;BME280;9688;51.906;8.376;2022-07-09T13:27:42;101494.72;;;26.42;46.01
19112;BME280;9688;51.906;8.376;2022-07-09T13:30:28;101490.22;;;26.53;45.81
19112;BME280;9688;51.906;8.376;2022-07-09T13:33:14;101498.19;;;26.54;45.19
19112;BME280;9688;51.906;8.376;2022-07-09T13:36:00;101488.34;;;26.63;44.00
19112;BME280;9688;51.906;8.376;2022-07-09T13:38:48;101492.19;;;26.80;42.58
19112;BME280;9688;51.906;8.376;2022-07-09T13:41:35;101479.91;;;26.85;42.03
19112;BME280;9688;51.906;8.376;2022-07-09T13:44:22;101485.91;;;26.89;41.67
19112;BME280;9688;51.906;8.376;2022-07-09T13:47:12;101472.34;;;26.79;41.80
19112;BME280;9688;51.906;8.376;2022-07-09T13:50:09;101485.34;;;26.95;41.93
19112;BME280;9688;51.906;8.376;2022-07-09T13:53:00;101483.91;;;27.01;40.92
19112;BME280;9688;51.906;8.376;2022-07-09T13:55:49;101481.06;;;27.02;40.87
19112;BME280;9688;51.906;8.376;2022-07-09T13:58:35;101486.31;;;27.23;40.31
19112;BME280;9688;51.906;8.376;2022-07-09T14:01:20;101485.97;;;27.46;39.95
19112;BME280;9688;51.906;8.376;2022-07-09T14:04:06;101485.78;;;27.57;39.78
19112;BME280;9688;51.906;8.376;2022-07-09T14:06:52;101489.56;;;27.74;39.10
19112;BME280;9688;51.906;8.376;2022-07-09T14:09:38;101488.03;;;27.71;39.46
19112;BME280;9688;51.906;8.376;2022-07-09T14:12:26;101479.34;;;27.58;39.35
19112;BME280;9688;51.906;8.376;2022-07-09T14:15:12;101485.41;;;27.42;39.42
19112;BME280;9688;51.906;8.376;2022-07-09T14:17:59;101484.44;;;27.24;38.89
19112;BME280;9688;51.906;8.376;2022-07-09T14:20:44;101489.59;;;27.07;40.34
19112;BME280;9688;51.906;8.376;2022-07-09T14:23:30;101482.75;;;26.74;42.17
19112;BME280;9688;51.906;8.376;2022-07-09T14:26:17;101482.88;;;26.34;44.16
19112;BME280;9688;51.906;8.376;2022-07-09T14:29:06;101488.97;;;26.16;44.98
19112;BME280;9688;51.906;8.376;2022-07-09T14:31:52;101484.25;;;26.09;45.52
19112;BME280;9688;51.906;8.376;2022-07-09T14:34:39;101487.25;;;26.06;45.63
19112;BME280;9688;51.906;8.376;2022-07-09T14:37:24;101487.34;;;26.04;46.05
19112;BME280;9688;51.906;8.376;2022-07-09T14:40:15;101491.81;;;26.15;45.77
19112;BME280;9688;51.906;8.376;2022-07-09T14:43:01;101490.78;;;26.06;46.04
19112;BME280;9688;51.906;8.376;2022-07-09T14:45:49;101486.16;;;25.87;46.91